createdAt,value
2023-01-22T00:01:17.118Z,102185.56
2023-01-22T00:03:46.190Z,102189.94
2023-01-22T00:06:12.979Z,102192.81
2023-01-22T00:08:39.312Z,102190.69
2023-01-22T00:11:05.837Z,102188.59
2023-01-22T00:13:32.177Z,102190.09
2023-01-22T00:15:58.581Z,102183.59
2023-01-22T00:18:24.949Z,102184.34
2023-01-22T00:20:51.666Z,102190.09
2023-01-22T00:23:17.990Z,102187.81
2023-01-22T00:25:44.311Z,102182.84
2023-01-22T00:28:11.083Z,102195.69
2023-01-22T00:30:37.669Z,102197.09
2023-01-22T00:33:04.069Z,102190.56
2023-01-22T00:35:30.416Z,102196.31
2023-01-22T00:37:57.003Z,102186.19
2023-01-22T00:40:23.417Z,102184.69
2023-01-22T00:42:50.159Z,102183.31
2023-01-22T00:45:16.595Z,102192.53
2023-01-22T00:47:42.953Z,102183.91
2023-01-22T00:50:09.606Z,102187.69
2023-01-22T00:52:37.713Z,102192.69
2023-01-22T00:55:04.608Z,102194.22
2023-01-22T00:57:30.928Z,102197.09
2023-01-22T00:59:58.837Z,102194.22
2023-01-22T01:02:25.155Z,102196.31
2023-01-22T01:04:52.504Z,102199.81
2023-01-22T01:07:18.844Z,102200.56
2023-01-22T01:09:45.185Z,102202.69
2023-01-22T01:12:13.324Z,102192.53
2023-01-22T01:14:39.660Z,102197.53
2023-01-22T01:17:05.984Z,102191.03
2023-01-22T01:19:32.337Z,102194.06
2023-01-22T01:21:58.690Z,102195.56
2023-01-22T01:24:25.063Z,102195.56
2023-01-22T01:26:51.390Z,102196.44
2023-01-22T01:29:17.765Z,102198.56
2023-01-22T01:31:44.153Z,102201.44
2023-01-22T01:34:10.499Z,102196.31
2023-01-22T01:36:48.393Z,102195.56
2023-01-22T01:39:15.323Z,102194.06
2023-01-22T01:41:41.657Z,102201.16
2023-01-22T01:44:13.934Z,102198.28
2023-01-22T01:46:41.590Z,102210.44
2023-01-22T01:49:09.579Z,102218.28
2023-01-22T01:51:35.993Z,102211.03
2023-01-22T01:54:02.523Z,102216.78
2023-01-22T01:56:30.123Z,102215.28
2023-01-22T01:58:58.471Z,102209.38
2023-01-22T02:01:24.793Z,102218.03
2023-01-22T02:03:51.325Z,102218.16
2023-01-22T02:06:18.322Z,102226.00
2023-01-22T02:08:45.234Z,102221.03
2023-01-22T02:11:11.668Z,102222.53
2023-01-22T02:13:38.362Z,102229.03
2023-01-22T02:16:05.852Z,102225.41
2023-01-22T02:18:32.219Z,102232.53
2023-01-22T02:20:59.365Z,102228.13
2023-01-22T02:23:26.037Z,102235.28
2023-01-22T03:08:43.267Z,102214.09
2023-01-22T03:11:10.559Z,102222.72
2023-01-22T03:13:55.817Z,102216.22
2023-01-22T03:16:41.379Z,102226.97
2023-01-22T03:19:26.721Z,102230.47
2023-01-22T03:21:53.247Z,102222.44
2023-01-22T03:24:19.582Z,102228.94
2023-01-22T03:26:45.938Z,102233.94
2023-01-22T03:29:13.046Z,102232.41
2023-01-22T03:31:39.516Z,102225.19
2023-01-22T03:34:05.901Z,102234.53
2023-01-22T03:36:32.766Z,102241.69
2023-01-22T03:39:03.404Z,102237.41
2023-01-22T03:41:29.760Z,102236.06
2023-01-22T03:43:58.845Z,102241.97
2023-01-22T03:46:30.426Z,102247.72
2023-01-22T03:48:57.911Z,102250.72
2023-01-22T03:51:25.854Z,102239.22
2023-01-22T03:53:52.204Z,102240.72
2023-01-22T03:56:21.750Z,102247.22
2023-01-22T03:58:48.596Z,102249.50
2023-01-22T04:01:16.238Z,102243.75
2023-01-22T04:03:43.212Z,102250.25
2023-01-22T04:06:10.934Z,102251.75
2023-01-22T04:08:38.310Z,102244.03
2023-01-22T04:11:04.640Z,102244.03
2023-01-22T04:13:31.829Z,102249.78
2023-01-22T04:15:58.656Z,102238.28
2023-01-22T04:18:56.818Z,102253.28
2023-01-22T04:21:49.065Z,102259.63
2023-01-22T04:24:15.807Z,102251.00
2023-01-22T04:26:42.183Z,102263.25
2023-01-22T04:29:10.387Z,102263.25
2023-01-22T04:31:37.248Z,102264.78
2023-01-22T04:34:24.784Z,102258.41
2023-01-22T04:37:14.373Z,102262.66
2023-01-22T04:39:40.716Z,102261.28
2023-01-22T04:42:07.066Z,102256.28
2023-01-22T04:44:33.444Z,102268.53
2023-01-22T04:46:59.872Z,102254.03
2023-01-22T04:49:26.443Z,102267.06
2023-01-22T04:51:54.122Z,102270.53
2023-01-22T04:54:20.557Z,102270.53
2023-01-22T04:56:47.182Z,102277.03
2023-01-22T04:59:13.527Z,102269.78
2023-01-22T05:01:40.332Z,102272.78
2023-01-22T05:04:06.696Z,102279.91
2023-01-22T05:06:34.231Z,102282.91
2023-01-22T05:09:01.721Z,102295.81
2023-01-22T05:11:32.136Z,102295.81
2023-01-22T05:14:01.737Z,102306.06
2023-01-22T05:16:28.333Z,102307.56
2023-01-22T05:18:54.677Z,102308.94
2023-01-22T05:21:21.001Z,102318.94
2023-01-22T05:23:47.335Z,102313.19
2023-01-22T05:26:13.689Z,102310.31
2023-01-22T05:28:46.259Z,102316.06
2023-01-22T05:31:27.048Z,102320.31
2023-01-22T05:33:59.995Z,102322.44
2023-01-22T05:36:27.575Z,102323.19
2023-01-22T05:38:57.795Z,102326.06
2023-01-22T05:41:26.038Z,102321.81
2023-01-22T05:43:53.633Z,102318.94
2023-01-22T05:46:25.402Z,102329.06
2023-01-22T05:49:04.543Z,102330.56
2023-01-22T05:51:32.603Z,102332.09
2023-01-22T05:53:59.123Z,102331.34
2023-01-22T05:56:28.288Z,102332.09
2023-01-22T05:58:54.672Z,102337.84
2023-01-22T06:01:21.055Z,102343.59
2023-01-22T06:03:51.954Z,102343.47
2023-01-22T06:06:21.616Z,102348.47
2023-01-22T06:08:48.047Z,102352.09
2023-01-22T06:11:14.961Z,102357.84
2023-01-22T06:13:44.910Z,102359.06
2023-01-22T06:16:16.666Z,102355.00
2023-01-22T06:19:15.141Z,102353.16
2023-01-22T06:21:45.631Z,102370.69
2023-01-22T06:24:12.329Z,102359.34
2023-01-22T06:26:38.661Z,102373.13
2023-01-22T06:29:07.341Z,102368.13
2023-01-22T06:31:34.411Z,102363.09
2023-01-22T06:34:05.653Z,102368.25
2023-01-22T06:36:32.130Z,102371.00
2023-01-22T06:38:58.543Z,102369.63
2023-01-22T06:41:42.422Z,102376.00
2023-01-22T06:44:11.515Z,102364.50
2023-01-22T06:46:37.933Z,102370.84
2023-01-22T06:49:09.417Z,102372.38
2023-01-22T06:51:35.758Z,102382.34
2023-01-22T06:54:02.130Z,102383.88
2023-01-22T06:56:28.497Z,102379.63
2023-01-22T06:58:56.628Z,102386.91
2023-01-22T07:01:23.022Z,102388.41
2023-01-22T07:03:49.445Z,102382.63
2023-01-22T07:06:18.676Z,102378.25
2023-01-22T07:08:44.993Z,102375.38
2023-01-22T07:11:11.323Z,102391.28
2023-01-22T07:13:37.654Z,102379.63
2023-01-22T07:16:04.187Z,102382.50
2023-01-22T07:18:30.558Z,102389.00
2023-01-22T07:21:00.147Z,102386.13
2023-01-22T07:23:26.467Z,102389.63
2023-01-22T07:25:52.797Z,102392.66
2023-01-22T07:28:19.111Z,102405.66
2023-01-22T07:30:48.498Z,102406.41
2023-01-22T07:33:14.935Z,102412.94
2023-01-22T07:35:41.304Z,102418.69
2023-01-22T07:38:07.743Z,102423.81
2023-01-22T07:40:34.185Z,102427.44
2023-01-22T07:43:04.269Z,102433.19
2023-01-22T07:45:30.590Z,102433.19
2023-01-22T07:47:57.522Z,102433.19
2023-01-22T07:50:24.163Z,102437.44
2023-01-22T07:52:50.496Z,102442.44
2023-01-22T07:55:16.942Z,102442.28
2023-01-22T07:57:43.269Z,102448.78
2023-01-22T08:00:13.002Z,102444.41
2023-01-22T08:02:39.565Z,102445.16
2023-01-22T08:05:06.563Z,102451.66
2023-01-22T08:07:32.896Z,102445.91
2023-01-22T08:09:59.539Z,102451.66
2023-01-22T08:12:25.889Z,102456.06
2023-01-22T08:14:52.215Z,102451.81
2023-01-22T08:17:18.556Z,102446.06
2023-01-22T08:19:44.882Z,102451.66
2023-01-22T08:22:11.228Z,102453.19
2023-01-22T08:24:37.581Z,102456.06
2023-01-22T08:27:04.130Z,102450.91
2023-01-22T08:29:30.464Z,102454.53
2023-01-22T08:31:56.905Z,102460.28
2023-01-22T08:34:23.333Z,102463.91
2023-01-22T08:36:49.718Z,102461.81
2023-01-22T08:39:16.059Z,102467.56
2023-01-22T08:41:42.387Z,102471.94
2023-01-22T08:44:11.227Z,102479.19
2023-01-22T08:46:40.185Z,102479.97
2023-01-22T08:49:06.893Z,102466.94
2023-01-22T08:51:33.267Z,102473.44
2023-01-22T08:53:59.579Z,102479.97
2023-01-22T08:56:25.923Z,102478.44
2023-01-22T08:58:52.285Z,102483.47
2023-01-22T09:01:19.034Z,102488.47
2023-01-22T09:03:45.532Z,102493.47
2023-01-22T09:06:12.010Z,102496.34
2023-01-22T09:08:38.391Z,102501.47
2023-01-22T09:11:04.917Z,102499.34
2023-01-22T09:13:31.243Z,102503.75
2023-01-22T09:15:58.563Z,102507.97
2023-01-22T09:18:25.134Z,102509.50
2023-01-22T09:20:51.481Z,102504.03
2023-01-22T09:23:17.846Z,102509.66
2023-01-22T09:25:44.195Z,102510.53
2023-01-22T09:28:12.217Z,102515.56
2023-01-22T09:30:40.433Z,102520.09
2023-01-22T09:33:06.760Z,102525.84
2023-01-22T09:35:33.082Z,102523.72
2023-01-22T09:37:59.418Z,102523.56
2023-01-22T09:40:32.988Z,102521.31
2023-01-22T09:43:04.180Z,102536.28
2023-01-22T09:45:30.558Z,102532.06
2023-01-22T09:47:59.634Z,102536.28
2023-01-22T09:50:30.314Z,102530.66
2023-01-22T09:52:58.315Z,102537.78
2023-01-22T09:55:26.905Z,102531.13
2023-01-22T09:57:54.078Z,102528.25
2023-01-22T10:00:38.181Z,102536.13
2023-01-22T10:03:10.553Z,102539.78
2023-01-22T10:05:42.842Z,102533.53
2023-01-22T10:08:11.166Z,102531.41
2023-01-22T10:10:38.872Z,102533.41
2023-01-22T10:13:18.730Z,102527.78
2023-01-22T10:15:45.137Z,102533.53
2023-01-22T10:18:28.120Z,102532.19
2023-01-22T10:20:54.891Z,102532.19
2023-01-22T10:23:22.732Z,102534.44
2023-01-22T10:25:49.208Z,102527.94
2023-01-22T10:28:15.675Z,102533.69
2023-01-22T10:30:45.936Z,102535.97
2023-01-22T10:33:20.633Z,102530.97
2023-01-22T10:35:47.578Z,102528.09
2023-01-22T10:38:20.875Z,102533.84
2023-01-22T10:40:48.282Z,102540.97
2023-01-22T10:43:15.429Z,102537.94
2023-01-22T10:45:50.972Z,102531.41
2023-01-22T10:48:17.350Z,102548.06
2023-01-22T10:50:43.774Z,102538.69
2023-01-22T10:53:20.647Z,102540.19
2023-01-22T10:55:54.017Z,102546.72
2023-01-22T10:58:21.274Z,102526.44
2023-01-22T11:00:55.598Z,102532.34
2023-01-22T11:03:37.789Z,102530.97
2023-01-22T11:06:13.987Z,102527.94
2023-01-22T11:08:48.459Z,102524.47
2023-01-22T11:11:14.990Z,102527.94
2023-01-22T11:13:54.395Z,102528.69
2023-01-22T11:16:21.790Z,102536.56
2023-01-22T11:18:55.502Z,102533.69
2023-01-22T11:21:29.086Z,102537.94
2023-01-22T11:24:06.376Z,102539.31
2023-01-22T11:26:45.996Z,102536.41
2023-01-22T11:29:18.236Z,102540.69
2023-01-22T11:31:50.082Z,102536.28
2023-01-22T11:34:32.880Z,102534.91
2023-01-22T11:36:59.152Z,102531.91
2023-01-22T11:39:48.382Z,102526.88
2023-01-22T11:42:31.598Z,102526.13
2023-01-22T11:45:04.224Z,102532.50
2023-01-22T11:47:49.265Z,102540.38
2023-01-22T11:50:19.589Z,102533.88
2023-01-22T11:52:51.315Z,102526.00
2023-01-22T11:55:29.912Z,102528.88
2023-01-22T11:58:00.781Z,102528.13
2023-01-22T12:00:30.501Z,102516.59
2023-01-22T12:03:00.434Z,102527.63
2023-01-22T12:05:45.184Z,102526.13
2023-01-22T12:08:16.741Z,102527.63
2023-01-22T12:10:59.230Z,102533.41
2023-01-22T12:13:29.343Z,102534.78
2023-01-22T12:16:05.629Z,102529.75
2023-01-22T12:18:36.058Z,102531.75
2023-01-22T12:21:08.572Z,102530.25
2023-01-22T12:23:42.382Z,102521.59
2023-01-22T12:26:13.698Z,102530.25
2023-01-22T12:28:47.990Z,102530.09
2023-01-22T12:31:19.676Z,102530.09
2023-01-22T12:33:46.137Z,102536.59
2023-01-22T12:36:13.592Z,102537.34
2023-01-22T12:38:39.880Z,102536.28
2023-01-22T12:41:06.232Z,102534.63
2023-01-22T12:43:37.632Z,102539.47
2023-01-22T12:46:10.185Z,102541.28
2023-01-22T12:48:55.852Z,102534.47
2023-01-22T12:51:26.313Z,102530.69
2023-01-22T12:53:52.659Z,102540.69
2023-01-22T12:56:28.391Z,102531.28
2023-01-22T12:58:57.938Z,102535.69
2023-01-22T13:01:24.817Z,102540.69
2023-01-22T13:03:58.164Z,102534.94
2023-01-22T13:06:31.743Z,102542.78
2023-01-22T13:08:58.085Z,102542.78
2023-01-22T13:11:28.266Z,102540.53
2023-01-22T13:14:03.173Z,102542.78
2023-01-22T13:16:36.686Z,102542.34
2023-01-22T13:19:22.480Z,102542.34
2023-01-22T13:21:48.984Z,102538.88
2023-01-22T13:24:16.566Z,102539.63
2023-01-22T13:26:49.547Z,102535.84
2023-01-22T13:29:26.690Z,102550.97
2023-01-22T13:31:54.225Z,102541.59
2023-01-22T13:34:20.633Z,102548.09
2023-01-22T13:36:47.390Z,102543.69
2023-01-22T13:39:32.402Z,102537.34
2023-01-22T13:41:59.506Z,102539.63
2023-01-22T13:44:26.656Z,102535.38
2023-01-22T13:46:53.115Z,102547.50
2023-01-22T13:49:22.244Z,102533.13
2023-01-22T13:51:48.765Z,102547.34
2023-01-22T13:54:17.785Z,102545.81
2023-01-22T13:56:44.120Z,102544.31
2023-01-22T13:59:22.864Z,102545.06
2023-01-22T14:01:49.280Z,102542.03
2023-01-22T14:04:25.658Z,102545.66
2023-01-22T14:06:52.006Z,102549.31
2023-01-22T14:09:28.245Z,102549.31
2023-01-22T14:11:54.725Z,102553.53
2023-01-22T14:14:21.150Z,102554.28
2023-01-22T14:16:47.523Z,102564.31
2023-01-22T14:19:13.881Z,102575.06
2023-01-22T14:21:40.209Z,102570.06
2023-01-22T14:24:06.735Z,102572.19
2023-01-22T14:26:33.065Z,102575.06
2023-01-22T14:28:59.437Z,102584.59
2023-01-22T14:31:25.829Z,102583.06
2023-01-22T14:33:52.171Z,102577.31
2023-01-22T14:36:20.256Z,102577.31
2023-01-22T14:38:47.900Z,102588.97
2023-01-22T14:41:14.224Z,102577.31
2023-01-22T14:43:40.546Z,102583.06
2023-01-22T14:46:07.199Z,102577.31
2023-01-22T14:48:33.872Z,102580.03
2023-01-22T14:51:00.326Z,102586.53
2023-01-22T14:53:26.677Z,102594.22
2023-01-22T14:55:53.017Z,102589.22
2023-01-22T14:58:19.344Z,102592.41
2023-01-22T15:00:45.717Z,102586.38
2023-01-22T15:03:12.100Z,102577.00
2023-01-22T15:05:38.412Z,102583.06
2023-01-22T15:08:04.903Z,102586.25
2023-01-22T15:10:31.507Z,102587.75
2023-01-22T15:12:57.903Z,102585.03
2023-01-22T15:15:26.859Z,102584.44
2023-01-22T15:17:53.502Z,102592.28
2023-01-22T15:20:20.269Z,102596.81
2023-01-22T15:22:46.687Z,102592.75
2023-01-22T15:25:13.021Z,102595.78
2023-01-22T15:27:40.087Z,102598.03
2023-01-22T15:30:06.658Z,102608.19
2023-01-22T15:32:33.101Z,102606.66
2023-01-22T15:34:59.792Z,102601.69
2023-01-22T15:37:26.187Z,102608.19
2023-01-22T15:39:52.505Z,102615.31
2023-01-22T15:42:18.855Z,102622.59
2023-01-22T15:44:45.195Z,102622.59
2023-01-22T15:47:11.516Z,102628.50
2023-01-22T15:49:37.847Z,102634.25
2023-01-22T15:52:04.854Z,102634.25
2023-01-22T15:54:31.186Z,102647.25
2023-01-22T15:56:57.530Z,102637.13
2023-01-22T15:59:23.878Z,102633.47
2023-01-22T16:01:50.203Z,102634.25
2023-01-22T16:04:16.546Z,102636.97
2023-01-22T16:06:42.995Z,102636.97
2023-01-22T16:09:09.321Z,102641.19
2023-01-22T16:11:35.668Z,102636.22
2023-01-22T16:14:02.102Z,102632.72
2023-01-22T16:16:30.464Z,102636.97
2023-01-22T16:18:56.875Z,102638.47
2023-01-22T16:21:23.219Z,102644.22
2023-01-22T16:23:52.278Z,102651.50
2023-01-22T16:26:19.628Z,102645.75
2023-01-22T16:28:46.202Z,102655.72
2023-01-22T16:31:13.241Z,102645.59
2023-01-22T16:33:41.231Z,102658.75
2023-01-22T16:36:12.110Z,102660.13
2023-01-22T16:38:38.574Z,102667.97
2023-01-22T16:41:25.557Z,102674.50
2023-01-22T16:43:52.917Z,102673.13
2023-01-22T16:46:19.952Z,102684.06
2023-01-22T16:48:46.328Z,102682.69
2023-01-22T16:51:19.418Z,102681.94
2023-01-22T16:53:45.797Z,102689.06
2023-01-22T16:56:12.255Z,102692.53
2023-01-22T16:58:38.605Z,102676.00
2023-01-22T17:01:05.276Z,102685.41
2023-01-22T17:03:31.663Z,102683.31
2023-01-22T17:05:58.140Z,102685.13
2023-01-22T17:08:24.496Z,102695.56
2023-01-22T17:10:50.871Z,102693.00
2023-01-22T17:13:17.208Z,102687.25
2023-01-22T17:15:45.715Z,102695.28
2023-01-22T17:18:12.056Z,102703.28
2023-01-22T17:20:38.891Z,102697.53
2023-01-22T17:23:05.698Z,102701.78
2023-01-22T17:25:32.152Z,102702.53
2023-01-22T17:27:58.499Z,102707.69
2023-01-22T17:30:24.932Z,102706.31
2023-01-22T17:32:51.532Z,102707.09
2023-01-22T17:35:18.321Z,102712.09
2023-01-22T17:37:45.506Z,102706.31
2023-01-22T17:40:11.949Z,102710.13
2023-01-22T17:42:38.288Z,102707.41
2023-01-22T17:45:04.749Z,102713.16
2023-01-22T17:47:31.087Z,102710.88
2023-01-22T17:49:57.426Z,102713.63
2023-01-22T17:52:23.750Z,102718.16
2023-01-22T17:54:50.273Z,102722.84
2023-01-22T17:57:16.657Z,102722.34
2023-01-22T17:59:43.020Z,102728.53
2023-01-22T18:02:10.126Z,102726.47
2023-01-22T18:04:37.184Z,102724.97
2023-01-22T18:07:04.005Z,102725.78
2023-01-22T18:09:30.757Z,102728.94
2023-01-22T18:11:58.463Z,102736.63
2023-01-22T18:14:28.264Z,102749.38
2023-01-22T18:16:54.608Z,102750.72
2023-01-22T18:19:23.126Z,102752.84
2023-01-22T18:21:49.459Z,102753.44
2023-01-22T18:24:15.797Z,102758.16
2023-01-22T18:26:42.160Z,102762.69
2023-01-22T18:29:08.485Z,102761.94
2023-01-22T18:31:34.949Z,102752.41
2023-01-22T18:34:02.829Z,102766.19
2023-01-22T18:36:30.048Z,102758.00
2023-01-22T18:39:00.613Z,102756.63
2023-01-22T18:41:26.997Z,102758.16
2023-01-22T18:43:57.128Z,102760.88
2023-01-22T18:46:25.092Z,102754.97
2023-01-22T18:48:58.343Z,102757.09
2023-01-22T18:51:24.825Z,102760.56
2023-01-22T18:53:51.189Z,102763.44
2023-01-22T18:56:17.595Z,102757.84
2023-01-22T18:58:44.767Z,102759.34
2023-01-22T19:01:15.214Z,102762.22
2023-01-22T19:03:41.929Z,102765.88
2023-01-22T19:06:13.446Z,102763.59
2023-01-22T19:08:43.352Z,102769.81
2023-01-22T19:11:10.050Z,102764.03
2023-01-22T19:13:36.362Z,102762.06
2023-01-22T19:16:03.647Z,102765.13
2023-01-22T19:18:30.236Z,102769.53
2023-01-22T19:21:01.115Z,102768.59
2023-01-22T19:23:27.450Z,102764.78
2023-01-22T19:25:56.950Z,102763.28
2023-01-22T19:28:23.270Z,102767.53
2023-01-22T19:30:49.711Z,102767.69
2023-01-22T19:33:16.040Z,102769.03
2023-01-22T19:35:45.769Z,102778.28
2023-01-22T19:38:12.100Z,102777.53
2023-01-22T19:40:39.285Z,102780.25
2023-01-22T19:43:06.558Z,102790.25
2023-01-22T19:45:35.434Z,102786.63
2023-01-22T19:48:01.919Z,102786.00
2023-01-22T19:50:28.266Z,102786.00
2023-01-22T19:52:54.661Z,102778.13
2023-01-22T19:55:24.576Z,102783.28
2023-01-22T19:57:51.167Z,102786.75
2023-01-22T20:00:17.654Z,102790.41
2023-01-22T20:02:43.986Z,102788.28
2023-01-22T20:05:10.315Z,102793.28
2023-01-22T20:07:36.635Z,102802.50
2023-01-22T20:10:02.966Z,102797.50
2023-01-22T20:12:29.286Z,102803.25
2023-01-22T20:14:55.623Z,102804.63
2023-01-22T20:17:21.968Z,102801.00
2023-01-22T20:19:48.303Z,102807.50
2023-01-22T20:22:14.628Z,102811.91
2023-01-22T20:24:41.622Z,102809.03
2023-01-22T20:27:08.089Z,102820.53
2023-01-22T20:29:34.541Z,102813.28
2023-01-22T20:32:01.109Z,102819.03
2023-01-22T20:34:27.523Z,102823.25
2023-01-22T20:36:53.870Z,102829.00
2023-01-22T20:39:20.212Z,102824.78
2023-01-22T20:41:47.211Z,102824.78
2023-01-22T20:44:13.766Z,102819.03
2023-01-22T20:46:44.557Z,102823.41
2023-01-22T20:49:11.091Z,102826.28
2023-01-22T20:51:37.616Z,102824.03
2023-01-22T20:54:03.976Z,102836.28
2023-01-22T20:56:31.509Z,102833.41
2023-01-22T20:58:58.483Z,102835.53
2023-01-22T21:01:24.857Z,102833.41
2023-01-22T21:03:51.198Z,102843.56
2023-01-22T21:06:18.013Z,102847.81
2023-01-22T21:08:44.486Z,102852.81
2023-01-22T21:11:11.621Z,102852.81
2023-01-22T21:13:37.968Z,102868.09
2023-01-22T21:16:08.011Z,102872.31
2023-01-22T21:18:34.345Z,102866.56
2023-01-22T21:21:00.673Z,102859.31
2023-01-22T21:23:27.004Z,102865.06
2023-01-22T21:25:53.345Z,102861.84
2023-01-22T21:28:20.284Z,102861.84
2023-01-22T21:30:46.644Z,102862.38
2023-01-22T21:33:12.983Z,102866.84
2023-01-22T21:35:39.303Z,102868.66
2023-01-22T21:38:05.689Z,102873.97
2023-01-22T21:40:32.015Z,102872.00
2023-01-22T21:43:17.100Z,102882.16
2023-01-22T21:46:02.175Z,102879.28
2023-01-22T21:48:29.282Z,102877.75
2023-01-22T21:50:55.668Z,102877.00
2023-01-22T21:53:22.009Z,102883.50
2023-01-22T21:55:51.703Z,102880.63
2023-01-22T21:58:18.026Z,102887.75
2023-01-22T22:00:44.382Z,102880.50
2023-01-22T22:03:10.730Z,102882.00
2023-01-22T22:05:37.132Z,102878.97
2023-01-22T22:08:03.451Z,102880.50
2023-01-22T22:10:29.784Z,102883.22
2023-01-22T22:12:56.100Z,102877.47
2023-01-22T22:15:22.463Z,102888.19
2023-01-22T22:17:48.890Z,102891.69
2023-01-22T22:20:16.348Z,102895.91
2023-01-22T22:22:42.672Z,102893.81
2023-01-22T22:25:09.220Z,102896.69
2023-01-22T22:27:35.682Z,102893.66
2023-01-22T22:30:02.054Z,102893.66
2023-01-22T22:32:28.441Z,102897.13
2023-01-22T22:34:54.811Z,102895.00
2023-01-22T22:37:21.148Z,102902.88
2023-01-22T22:39:47.468Z,102901.38
2023-01-22T22:42:13.819Z,102899.81
2023-01-22T22:44:40.156Z,102901.94
2023-01-22T22:47:06.502Z,102908.47
2023-01-22T22:49:32.855Z,102915.59
2023-01-22T22:51:59.227Z,102914.06
2023-01-22T22:54:25.546Z,102914.06
2023-01-22T22:56:52.751Z,102912.53
2023-01-22T22:59:20.874Z,102916.75
2023-01-22T23:01:47.988Z,102924.06
2023-01-22T23:04:14.359Z,102919.81
2023-01-22T23:06:41.800Z,102902.53
2023-01-22T23:09:08.509Z,102911.78
2023-01-22T23:11:34.874Z,102922.50
2023-01-22T23:14:01.485Z,102918.28
2023-01-22T23:16:28.581Z,102923.88
2023-01-22T23:18:54.919Z,102920.84
2023-01-22T23:21:22.260Z,102923.72
2023-01-22T23:23:48.777Z,102922.19
2023-01-22T23:26:15.963Z,102926.44
2023-01-22T23:28:42.303Z,102925.06
2023-01-22T23:31:09.850Z,102935.06
2023-01-22T23:33:36.302Z,102927.19
2023-01-22T23:36:12.119Z,102937.34
2023-01-22T23:38:38.461Z,102943.84
2023-01-22T23:41:05.342Z,102952.50
2023-01-22T23:43:32.485Z,102946.91
2023-01-22T23:45:59.111Z,102950.53
2023-01-22T23:48:25.446Z,102957.03
2023-01-22T23:50:53.426Z,102957.03
2023-01-22T23:53:19.952Z,102949.19
2023-01-22T23:55:46.339Z,102954.16
2023-01-22T23:58:12.695Z,102954.16
